createdAt,value
2019-01-19T00:00:46.714Z,53.49
2019-01-19T00:08:50.570Z,53.67
2019-01-19T00:19:51.531Z,53.86
2019-01-19T00:39:07.689Z,53.73
2019-01-19T00:44:57.030Z,53.60
2019-01-19T00:47:32.909Z,53.71
2019-01-19T01:06:48.964Z,53.67
2019-01-19T01:17:59.581Z,53.89
2019-01-19T01:23:26.054Z,53.85
2019-01-19T01:26:17.017Z,53.83
2019-01-19T01:31:43.363Z,53.92
2019-01-19T01:34:40.967Z,54.08
2019-01-19T01:40:29.148Z,54.26
2019-01-19T01:43:08.214Z,54.19
2019-01-19T01:48:41.540Z,53.91
2019-01-19T01:51:26.439Z,54.09
2019-01-19T01:54:17.517Z,54.08
2019-01-19T01:56:47.539Z,53.94
2019-01-19T01:59:37.306Z,53.91
2019-01-19T02:04:46.955Z,53.94
2019-01-19T02:10:20.479Z,54.09
2019-01-19T02:15:56.757Z,54.13
2019-01-19T02:18:41.825Z,54.26
2019-01-19T02:21:29.760Z,54.21
2019-01-19T02:27:18.534Z,54.28
2019-01-19T02:29:48.560Z,54.26
2019-01-19T02:32:43.416Z,54.42
2019-01-19T02:35:22.421Z,54.44
2019-01-19T02:43:37.211Z,54.63
2019-01-19T02:51:37.092Z,54.53
2019-01-19T02:57:06.905Z,54.45
2019-01-19T03:13:32.789Z,54.27
2019-01-19T03:16:09.405Z,54.12
2019-01-19T03:19:00.832Z,54.01
2019-01-19T03:21:36.810Z,54.14
2019-01-19T03:41:31.296Z,54.50
2019-01-19T03:44:15.958Z,54.45
2019-01-19T03:47:11.026Z,54.29
2019-01-19T03:52:37.379Z,54.28
2019-01-19T03:58:02.088Z,54.26
2019-01-19T04:00:43.779Z,54.31
2019-01-19T04:03:19.366Z,54.09
2019-01-19T04:08:58.928Z,54.28
2019-01-19T04:11:31.455Z,54.20
2019-01-19T04:17:17.332Z,54.23
2019-01-19T04:19:56.274Z,54.19
2019-01-19T04:22:26.310Z,54.24
2019-01-19T04:25:02.133Z,54.24
2019-01-19T04:27:32.163Z,54.17
2019-01-19T04:30:02.173Z,54.07
2019-01-19T04:32:32.483Z,54.16
2019-01-19T04:35:02.506Z,54.14
2019-01-19T04:37:32.529Z,54.20
2019-01-19T04:40:02.581Z,54.73
2019-01-19T04:42:32.613Z,54.41
2019-01-19T04:45:02.639Z,54.39
2019-01-19T04:47:32.720Z,54.37
2019-01-19T04:50:02.722Z,54.31
2019-01-19T04:52:33.023Z,54.34
2019-01-19T04:55:03.051Z,54.36
2019-01-19T04:57:33.458Z,54.38
2019-01-19T05:00:03.780Z,54.36
2019-01-19T05:02:33.810Z,54.26
2019-01-19T05:05:04.146Z,54.17
2019-01-19T05:07:34.182Z,54.07
2019-01-19T05:10:04.195Z,54.07
2019-01-19T05:12:34.253Z,54.12
2019-01-19T05:15:04.250Z,54.03
2019-01-19T05:17:34.280Z,54.26
2019-01-19T05:20:04.297Z,54.40
2019-01-19T05:22:34.329Z,54.28
2019-01-19T05:25:04.349Z,54.39
2019-01-19T05:27:34.766Z,54.41
2019-01-19T05:30:05.082Z,54.45
2019-01-19T05:32:35.123Z,54.70
2019-01-19T05:35:05.425Z,54.63
2019-01-19T05:37:35.467Z,54.76
2019-01-19T05:40:05.475Z,54.64
2019-01-19T05:42:35.519Z,54.56
2019-01-19T05:45:05.546Z,54.48
2019-01-19T05:47:35.895Z,54.47
2019-01-19T05:52:51.333Z,54.24
2019-01-19T05:55:21.347Z,54.29
2019-01-19T05:57:51.377Z,54.31
2019-01-19T06:01:26.078Z,56.49
2019-01-19T06:03:56.003Z,56.56
2019-01-19T06:06:25.939Z,56.60
2019-01-19T06:08:55.881Z,56.63
2019-01-19T06:11:25.809Z,56.53
2019-01-19T06:13:56.022Z,56.67
2019-01-19T06:16:25.960Z,56.37
2019-01-19T06:18:56.010Z,56.43
2019-01-19T06:21:26.282Z,56.61
2019-01-19T06:23:56.221Z,56.50
2019-01-19T06:26:26.151Z,56.35
2019-01-19T06:28:56.104Z,56.50
2019-01-19T06:31:26.337Z,56.51
2019-01-19T06:33:56.565Z,56.37
2019-01-19T06:36:26.501Z,56.43
2019-01-19T06:38:56.804Z,56.49
2019-01-19T06:41:27.050Z,56.81
2019-01-19T06:43:57.335Z,56.47
2019-01-19T06:46:27.278Z,56.71
2019-01-19T06:48:57.240Z,57.06
2019-01-19T06:51:27.480Z,56.99
2019-01-19T06:54:01.668Z,56.89
2019-01-19T06:56:27.637Z,56.90
2019-01-19T06:58:57.574Z,56.61
2019-01-19T07:01:27.504Z,56.90
2019-01-19T07:03:57.773Z,56.86
2019-01-19T07:06:28.088Z,56.58
2019-01-19T07:08:58.028Z,56.59
2019-01-19T07:11:28.317Z,56.49
2019-01-19T07:13:59.141Z,56.58
2019-01-19T07:16:28.207Z,56.55
2019-01-19T07:18:58.174Z,56.54
2019-01-19T07:21:28.381Z,56.60
2019-01-19T07:23:58.707Z,56.55
2019-01-19T07:26:28.743Z,56.54
2019-01-19T07:28:58.580Z,56.63
2019-01-19T07:31:28.841Z,56.63
2019-01-19T07:33:58.902Z,56.59
2019-01-19T07:36:28.832Z,56.52
2019-01-19T07:38:59.060Z,56.50
2019-01-19T07:41:28.994Z,56.61
2019-01-19T07:43:58.935Z,56.55
2019-01-19T07:46:28.870Z,56.66
2019-01-19T07:48:59.158Z,56.62
2019-01-19T07:51:29.366Z,56.67
2019-01-19T07:53:59.426Z,56.57
2019-01-19T07:56:29.707Z,56.53
2019-01-19T07:58:59.654Z,56.63
2019-01-19T08:01:29.952Z,56.62
2019-01-19T08:03:59.895Z,56.55
2019-01-19T08:06:29.826Z,56.42
2019-01-19T08:08:59.815Z,56.39
2019-01-19T08:11:30.109Z,56.37
2019-01-19T08:14:00.336Z,56.37
2019-01-19T08:16:30.545Z,56.46
2019-01-19T08:19:00.501Z,56.46
2019-01-19T08:21:30.427Z,56.42
2019-01-19T08:24:00.372Z,56.41
2019-01-19T08:26:30.613Z,56.46
2019-01-19T08:29:00.560Z,56.25
2019-01-19T08:31:30.882Z,56.09
2019-01-19T08:34:00.848Z,56.00
2019-01-19T08:36:31.078Z,55.82
2019-01-19T08:39:01.021Z,55.93
2019-01-19T08:41:30.959Z,55.89
2019-01-19T08:44:00.890Z,55.78
2019-01-19T08:46:30.839Z,55.97
2019-01-19T08:49:00.782Z,55.79
2019-01-19T08:51:30.721Z,55.62
2019-01-19T08:54:00.991Z,56.30
2019-01-19T08:56:31.202Z,56.16
2019-01-19T08:59:01.153Z,56.21
2019-01-19T09:01:31.095Z,56.35
2019-01-19T09:04:01.345Z,56.47
2019-01-19T09:06:31.272Z,56.49
2019-01-19T09:09:01.583Z,56.24
2019-01-19T09:11:31.510Z,56.62
2019-01-19T09:14:01.443Z,56.83
2019-01-19T09:16:31.395Z,56.55
2019-01-19T09:19:01.330Z,56.54
2019-01-19T09:21:31.553Z,57.19
2019-01-19T09:24:01.498Z,57.12
2019-01-19T09:26:31.435Z,57.10
2019-01-19T09:29:01.371Z,57.33
2019-01-19T09:31:31.617Z,56.85
2019-01-19T09:34:01.931Z,56.79
2019-01-19T09:36:31.855Z,56.37
2019-01-19T09:39:01.796Z,56.49
2019-01-19T09:41:31.720Z,56.50
2019-01-19T09:44:01.995Z,56.22
2019-01-19T09:46:32.215Z,56.66
2019-01-19T09:49:02.167Z,55.80
2019-01-19T09:51:32.107Z,55.65
2019-01-19T09:54:02.366Z,55.57
2019-01-19T09:56:32.579Z,56.18
2019-01-19T09:59:02.530Z,56.41
2019-01-19T10:01:32.470Z,56.09
2019-01-19T10:04:02.727Z,55.97
2019-01-19T10:06:32.663Z,55.92
2019-01-19T10:09:02.605Z,56.82
2019-01-19T10:11:32.560Z,57.10
2019-01-19T10:14:02.511Z,57.63
2019-01-19T10:16:32.845Z,57.22
2019-01-19T10:19:03.025Z,57.65
2019-01-19T10:21:33.238Z,57.23
2019-01-19T10:24:03.233Z,57.33
2019-01-19T10:26:33.170Z,57.31
2019-01-19T10:29:03.134Z,58.01
2019-01-19T10:31:33.333Z,57.86
2019-01-19T10:34:03.285Z,58.27
2019-01-19T10:36:33.533Z,57.98
2019-01-19T10:39:03.480Z,57.78
2019-01-19T10:41:40.660Z,58.05
2019-01-19T10:44:03.673Z,58.63
2019-01-19T10:46:33.909Z,58.30
2019-01-19T10:49:03.848Z,58.43
2019-01-19T10:51:33.776Z,57.77
2019-01-19T10:54:03.727Z,58.12
2019-01-19T10:56:33.661Z,57.65
2019-01-19T10:59:03.608Z,57.50
2019-01-19T11:01:33.898Z,57.63
2019-01-19T11:04:03.830Z,57.30
2019-01-19T11:06:34.124Z,57.35
2019-01-19T11:09:04.350Z,57.53
2019-01-19T11:11:34.553Z,57.23
2019-01-19T11:14:04.499Z,56.95
2019-01-19T11:16:34.803Z,57.42
2019-01-19T11:19:04.754Z,57.17
2019-01-19T11:21:34.695Z,56.68
2019-01-19T11:24:04.954Z,57.30
2019-01-19T11:26:34.891Z,57.00
2019-01-19T11:29:04.842Z,56.59
2019-01-19T11:31:34.775Z,56.69
2019-01-19T11:34:04.730Z,57.13
2019-01-19T11:36:34.673Z,58.16
2019-01-19T11:39:04.936Z,57.62
2019-01-19T11:41:35.185Z,57.16
2019-01-19T11:44:05.479Z,56.96
2019-01-19T11:46:35.422Z,56.61
2019-01-19T11:49:05.727Z,56.46
2019-01-19T11:51:35.685Z,56.42
2019-01-19T11:54:05.948Z,56.40
2019-01-19T11:56:36.269Z,56.20
2019-01-19T11:59:06.261Z,56.33
2019-01-19T12:01:36.211Z,56.49
2019-01-19T12:04:06.146Z,56.36
2019-01-19T12:06:36.082Z,56.35
2019-01-19T12:09:06.343Z,56.07
2019-01-19T12:11:36.299Z,55.83
2019-01-19T12:14:06.579Z,55.98
2019-01-19T12:16:36.532Z,55.86
2019-01-19T12:19:06.816Z,56.11
2019-01-19T12:21:36.755Z,56.21
2019-01-19T12:24:06.945Z,56.03
2019-01-19T12:26:37.164Z,55.77
2019-01-19T12:29:07.111Z,55.82
2019-01-19T12:31:37.072Z,55.78
2019-01-19T12:34:07.014Z,56.02
2019-01-19T12:36:36.968Z,57.95
2019-01-19T12:39:06.924Z,56.65
2019-01-19T12:41:36.875Z,56.00
2019-01-19T12:44:06.848Z,55.99
2019-01-19T12:46:36.791Z,56.27
2019-01-19T12:49:07.101Z,56.68
2019-01-19T12:51:37.044Z,56.31
2019-01-19T12:54:06.981Z,56.29
2019-01-19T12:56:36.936Z,57.32
2019-01-19T12:59:06.896Z,58.39
2019-01-19T13:01:36.817Z,56.98
2019-01-19T13:04:07.085Z,56.42
2019-01-19T13:06:37.020Z,56.13
2019-01-19T13:09:12.499Z,56.51
2019-01-19T13:11:39.858Z,56.32
2019-01-19T13:14:10.035Z,56.21
2019-01-19T13:27:57.620Z,56.54
2019-01-19T13:30:48.982Z,56.19
2019-01-19T13:33:36.836Z,56.14
2019-01-19T13:36:27.939Z,56.31
2019-01-19T13:39:09.790Z,56.57
2019-01-19T13:42:16.960Z,56.76
2019-01-19T13:47:31.727Z,56.00
2019-01-19T13:53:05.436Z,55.94
2019-01-19T14:01:25.827Z,56.15
2019-01-19T14:06:34.723Z,55.79
2019-01-19T14:15:06.708Z,55.83
2019-01-19T14:17:45.296Z,55.60
2019-01-19T14:20:24.641Z,56.26
2019-01-19T14:23:06.230Z,55.99
2019-01-19T14:28:27.559Z,56.12
2019-01-19T14:42:29.592Z,56.43
2019-01-19T14:47:54.202Z,56.92
2019-01-19T14:56:34.931Z,57.23
2019-01-19T15:04:46.414Z,56.68
2019-01-19T15:07:37.470Z,56.48
2019-01-19T15:10:28.631Z,56.25
2019-01-19T15:13:20.383Z,54.30
2019-01-19T15:26:35.474Z,54.18
2019-01-19T15:34:16.030Z,56.34
2019-01-19T15:37:07.476Z,56.30
2019-01-19T15:40:07.769Z,56.31
2019-01-19T15:49:39.858Z,56.17
2019-01-19T15:55:00.601Z,56.11
2019-01-19T15:59:19.020Z,56.16
2019-01-19T16:02:10.207Z,56.18
2019-01-19T16:05:01.721Z,56.10
2019-01-19T16:07:31.946Z,56.18
2019-01-19T16:15:11.955Z,56.15
2019-01-19T16:19:38.660Z,55.79
2019-01-19T16:22:10.660Z,55.97
2019-01-19T16:27:27.534Z,55.89
2019-01-19T16:30:05.379Z,55.55
2019-01-19T16:34:27.333Z,55.64
2019-01-19T16:36:55.978Z,55.60
2019-01-19T16:44:59.980Z,55.51
2019-01-19T16:47:31.530Z,55.71
2019-01-19T16:50:15.318Z,56.37
2019-01-19T16:53:58.702Z,60.86
2019-01-19T16:56:30.634Z,62.64
2019-01-19T17:02:11.719Z,65.57
2019-01-19T17:04:40.349Z,66.27
2019-01-19T17:13:09.436Z,67.65
2019-01-19T17:15:44.153Z,68.62
2019-01-19T17:18:26.444Z,68.69
2019-01-19T17:21:31.380Z,68.76
2019-01-19T17:29:50.031Z,70.03
2019-01-19T17:40:53.783Z,70.62
2019-01-19T17:46:09.935Z,70.85
2019-01-19T17:48:47.437Z,70.83
2019-01-19T17:54:15.775Z,70.81
2019-01-19T17:56:51.287Z,71.30
2019-01-19T18:03:39.313Z,76.63
2019-01-19T18:09:07.891Z,77.04
2019-01-19T18:11:39.880Z,76.51
2019-01-19T18:14:11.271Z,77.37
2019-01-19T18:16:58.632Z,77.29
2019-01-19T18:19:33.530Z,77.32
2019-01-19T18:22:23.534Z,77.79
2019-01-19T18:24:55.212Z,77.68
2019-01-19T18:30:29.152Z,77.40
2019-01-19T18:35:51.571Z,77.21
2019-01-19T18:38:35.840Z,77.22
2019-01-19T18:43:52.071Z,77.30
2019-01-19T18:49:11.371Z,77.42
2019-01-19T18:51:48.916Z,77.98
2019-01-19T18:54:30.001Z,77.37
2019-01-19T18:57:32.827Z,77.29
2019-01-19T19:00:04.843Z,76.90
2019-01-19T19:05:46.037Z,77.25
2019-01-19T19:11:05.298Z,76.92
2019-01-19T19:13:36.634Z,78.02
2019-01-19T19:16:17.559Z,76.88
2019-01-19T19:18:51.943Z,76.83
2019-01-19T19:21:39.195Z,77.42
2019-01-19T19:24:14.196Z,77.29
2019-01-19T19:26:54.769Z,77.55
2019-01-19T19:29:32.192Z,77.59
2019-01-19T19:32:12.894Z,78.04
2019-01-19T19:37:35.252Z,76.86
2019-01-19T19:40:32.166Z,77.86
2019-01-19T19:49:03.331Z,77.25
2019-01-19T19:54:32.395Z,77.17
2019-01-19T19:57:01.399Z,77.19
2019-01-19T19:59:30.022Z,76.71
2019-01-19T20:01:58.744Z,77.26
2019-01-19T20:04:27.370Z,78.23
2019-01-19T20:06:56.357Z,76.46
2019-01-19T20:09:25.008Z,76.04
2019-01-19T20:11:53.611Z,77.49
2019-01-19T20:14:22.355Z,77.14
2019-01-19T20:16:51.037Z,76.20
2019-01-19T20:19:19.960Z,77.87
2019-01-19T20:21:48.949Z,77.88
2019-01-19T20:24:17.576Z,77.87
2019-01-19T20:26:46.274Z,77.21
2019-01-19T20:29:15.102Z,77.28
2019-01-19T20:31:43.699Z,77.26
2019-01-19T20:34:12.431Z,77.28
2019-01-19T20:36:41.361Z,77.12
2019-01-19T20:39:10.507Z,76.79
2019-01-19T20:41:39.192Z,76.51
2019-01-19T20:44:08.126Z,76.66
2019-01-19T20:46:36.755Z,76.66
2019-01-19T20:49:05.366Z,76.49
2019-01-19T20:51:34.278Z,78.02
2019-01-19T20:54:02.903Z,77.35
2019-01-19T20:56:31.598Z,77.84
2019-01-19T20:59:00.235Z,77.24
2019-01-19T21:01:28.847Z,77.87
2019-01-19T21:03:57.799Z,77.35
2019-01-19T21:06:26.688Z,79.26
2019-01-19T21:08:55.331Z,78.18
2019-01-19T21:11:23.966Z,77.59
2019-01-19T21:13:52.643Z,78.32
2019-01-19T21:16:21.263Z,78.13
2019-01-19T21:18:50.213Z,77.64
2019-01-19T21:21:18.833Z,78.01
2019-01-19T21:23:47.457Z,77.48
2019-01-19T21:26:16.072Z,77.56
2019-01-19T21:28:44.687Z,77.70
2019-01-19T21:31:13.292Z,77.25
2019-01-19T21:33:41.921Z,77.52
2019-01-19T21:36:10.562Z,77.61
2019-01-19T21:38:39.145Z,77.30
2019-01-19T21:41:07.769Z,77.43
2019-01-19T21:43:36.357Z,77.58
2019-01-19T21:46:04.977Z,77.21
2019-01-19T21:48:33.601Z,77.38
2019-01-19T21:51:02.244Z,77.73
2019-01-19T21:53:30.850Z,76.89
2019-01-19T21:55:59.746Z,77.16
2019-01-19T21:58:28.371Z,77.53
2019-01-19T22:00:57.323Z,77.08
2019-01-19T22:03:26.216Z,77.50
2019-01-19T22:05:54.835Z,79.02
2019-01-19T22:08:23.446Z,76.87
2019-01-19T22:10:52.363Z,76.97
2019-01-19T22:13:20.999Z,76.49
2019-01-19T22:15:49.644Z,77.01
2019-01-19T22:18:18.520Z,76.79
2019-01-19T22:20:47.132Z,77.88
2019-01-19T22:23:15.811Z,77.56
2019-01-19T22:25:44.422Z,77.49
2019-01-19T22:28:13.365Z,77.54
2019-01-19T22:30:41.980Z,76.48
2019-01-19T22:33:10.582Z,76.86
2019-01-19T22:35:39.507Z,76.51
2019-01-19T22:38:08.117Z,76.24
2019-01-19T22:40:36.752Z,76.82
2019-01-19T22:43:05.661Z,78.33
2019-01-19T22:45:34.283Z,77.45
2019-01-19T22:48:02.895Z,77.16
2019-01-19T22:50:31.512Z,77.09
2019-01-19T22:53:00.129Z,77.11
2019-01-19T22:55:29.083Z,77.22
2019-01-19T22:57:57.966Z,77.05
2019-01-19T23:00:41.994Z,77.48
2019-01-19T23:03:10.606Z,77.65
2019-01-19T23:05:39.587Z,77.78
2019-01-19T23:08:08.195Z,77.54
2019-01-19T23:10:36.831Z,77.35
2019-01-19T23:13:05.457Z,77.78
2019-01-19T23:15:34.074Z,77.72
2019-01-19T23:18:03.003Z,77.32
2019-01-19T23:20:31.994Z,77.46
2019-01-19T23:23:00.590Z,76.87
2019-01-19T23:25:29.217Z,76.80
2019-01-19T23:27:58.153Z,77.55
2019-01-19T23:30:26.769Z,78.49
2019-01-19T23:32:55.387Z,77.63
2019-01-19T23:35:23.999Z,77.21
2019-01-19T23:37:52.632Z,76.16
2019-01-19T23:40:21.255Z,76.99
2019-01-19T23:42:49.861Z,75.88
2019-01-19T23:45:38.452Z,74.89
2019-01-19T23:48:07.067Z,72.94
2019-01-19T23:50:35.686Z,72.31
2019-01-19T23:53:04.649Z,72.15
2019-01-19T23:55:33.283Z,71.97
2019-01-19T23:58:02.262Z,72.31
